createdAt,value
2019-01-17T00:02:16.625Z,7.60
2019-01-17T00:04:48.617Z,7.70
2019-01-17T00:07:21.441Z,7.83
2019-01-17T00:09:53.320Z,7.13
2019-01-17T00:12:23.277Z,7.60
2019-01-17T00:14:53.063Z,7.53
2019-01-17T00:17:27.146Z,9.10
2019-01-17T00:19:56.174Z,8.17
2019-01-17T00:22:30.758Z,8.57
2019-01-17T00:25:02.722Z,7.93
2019-01-17T00:27:32.763Z,9.33
2019-01-17T00:30:01.790Z,9.07
2019-01-17T00:32:34.627Z,7.90
2019-01-17T00:35:05.461Z,7.27
2019-01-17T00:37:40.404Z,7.60
2019-01-17T00:40:12.242Z,9.73
2019-01-17T00:42:41.266Z,7.43
2019-01-17T00:45:11.322Z,8.13
2019-01-17T00:47:45.233Z,9.63
2019-01-17T00:50:17.252Z,8.20
2019-01-17T00:52:47.089Z,11.93
2019-01-17T00:55:16.116Z,8.17
2019-01-17T00:57:45.181Z,7.60
2019-01-17T01:00:15.180Z,9.93
2019-01-17T01:02:44.220Z,8.47
2019-01-17T01:05:14.308Z,9.40
2019-01-17T01:07:49.129Z,8.23
2019-01-17T01:10:24.023Z,8.70
2019-01-17T01:12:53.887Z,8.10
2019-01-17T01:15:28.590Z,6.73
2019-01-17T01:18:23.036Z,7.30
2019-01-17T01:20:45.907Z,6.60
2019-01-17T01:23:16.743Z,8.43
2019-01-17T01:25:47.669Z,6.83
2019-01-17T01:28:16.707Z,7.63
2019-01-17T01:30:49.641Z,7.30
2019-01-17T01:33:21.659Z,6.77
2019-01-17T01:35:51.522Z,6.27
2019-01-17T01:38:24.566Z,7.20
2019-01-17T01:40:53.588Z,7.00
2019-01-17T01:43:24.549Z,6.73
2019-01-17T01:45:55.391Z,7.03
2019-01-17T01:48:27.207Z,6.97
2019-01-17T01:50:57.066Z,7.17
2019-01-17T01:53:26.111Z,7.47
2019-01-17T01:55:55.146Z,7.33
2019-01-17T01:58:24.238Z,7.10
2019-01-17T02:00:53.286Z,7.10
2019-01-17T02:03:22.325Z,8.30
2019-01-17T02:05:51.382Z,8.13
2019-01-17T02:08:20.420Z,7.47
2019-01-17T02:10:49.459Z,7.07
2019-01-17T02:13:18.527Z,8.57
2019-01-17T02:15:47.572Z,8.33
2019-01-17T02:18:16.610Z,7.57
2019-01-17T02:20:45.674Z,7.40
2019-01-17T02:23:14.704Z,6.83
2019-01-17T02:25:53.936Z,8.57
2019-01-17T02:28:22.974Z,8.53
2019-01-17T02:30:52.019Z,9.53
2019-01-17T02:33:21.093Z,7.73
2019-01-17T02:35:56.650Z,7.87
2019-01-17T02:38:25.759Z,9.07
2019-01-17T02:40:54.781Z,7.60
2019-01-17T02:43:23.810Z,8.13
2019-01-17T02:45:52.875Z,9.63
2019-01-17T02:48:21.911Z,8.10
2019-01-17T02:50:50.968Z,8.00
2019-01-17T02:53:20.320Z,7.60
2019-01-17T02:55:49.357Z,7.47
2019-01-17T02:58:18.391Z,8.63
2019-01-17T03:00:47.761Z,8.10
2019-01-17T03:03:16.794Z,8.80
2019-01-17T03:05:45.836Z,9.50
2019-01-17T03:08:14.888Z,8.20
2019-01-17T03:10:43.927Z,7.90
2019-01-17T03:13:12.962Z,7.40
2019-01-17T03:15:58.974Z,10.63
2019-01-17T03:18:28.017Z,8.93
2019-01-17T03:20:57.061Z,9.17
2019-01-17T03:23:26.151Z,8.57
2019-01-17T03:25:55.190Z,9.13
2019-01-17T03:28:24.238Z,9.30
2019-01-17T03:30:53.325Z,9.83
2019-01-17T03:33:22.374Z,9.67
2019-01-17T03:35:51.410Z,7.73
2019-01-17T03:38:20.494Z,10.63
2019-01-17T03:40:49.542Z,12.07
2019-01-17T03:43:18.580Z,9.30
2019-01-17T03:45:47.637Z,7.70
2019-01-17T03:48:16.668Z,9.13
2019-01-17T03:50:45.708Z,8.40
2019-01-17T03:53:14.783Z,6.80
2019-01-17T03:55:56.615Z,7.53
2019-01-17T03:58:25.712Z,9.37
2019-01-17T04:00:54.743Z,8.97
2019-01-17T04:03:23.780Z,7.77
2019-01-17T04:05:52.848Z,7.67
2019-01-17T04:08:21.968Z,8.07
2019-01-17T04:10:50.918Z,8.67
2019-01-17T04:13:20.039Z,42.57
2019-01-17T04:15:49.086Z,16.80
2019-01-17T04:18:18.153Z,31.80
2019-01-17T04:20:47.250Z,43.17
2019-01-17T04:23:16.295Z,35.10
2019-01-17T04:25:50.223Z,14.83
2019-01-17T04:28:17.544Z,19.10
2019-01-17T04:30:46.599Z,13.93
2019-01-17T04:33:15.708Z,15.30
2019-01-17T04:35:44.773Z,16.13
2019-01-17T04:38:13.815Z,9.20
2019-01-17T04:40:43.434Z,19.57
2019-01-17T04:43:12.490Z,19.77
2019-01-17T04:45:41.542Z,11.50
2019-01-17T04:48:10.624Z,11.53
2019-01-17T04:50:40.550Z,11.57
2019-01-17T04:53:09.605Z,11.93
2019-01-17T04:55:38.681Z,10.67
2019-01-17T04:58:07.727Z,30.90
2019-01-17T05:00:36.784Z,28.90
2019-01-17T05:03:05.881Z,36.67
2019-01-17T05:05:40.848Z,34.33
2019-01-17T05:08:10.394Z,37.63
2019-01-17T05:10:38.961Z,82.30
2019-01-17T05:13:08.001Z,53.43
2019-01-17T05:15:37.073Z,32.40
2019-01-17T05:18:06.122Z,38.67
2019-01-17T05:20:35.168Z,46.33
2019-01-17T05:23:04.286Z,84.50
2019-01-17T05:28:39.106Z,17.87
2019-01-17T05:31:08.147Z,39.37
2019-01-17T05:33:37.205Z,46.70
2019-01-17T05:36:07.310Z,28.97
2019-01-17T05:38:36.363Z,20.73
2019-01-17T05:41:05.407Z,20.30
2019-01-17T05:43:34.512Z,27.33
2019-01-17T05:46:03.567Z,22.63
2019-01-17T05:48:32.624Z,26.03
2019-01-17T05:51:01.804Z,28.20
2019-01-17T05:53:30.857Z,34.23
2019-01-17T05:55:59.906Z,23.47
2019-01-17T05:58:28.986Z,21.27
2019-01-17T06:00:58.042Z,20.87
2019-01-17T06:03:27.101Z,14.97
2019-01-17T06:05:56.197Z,17.57
2019-01-17T06:08:25.251Z,15.43
2019-01-17T06:10:54.289Z,14.43
2019-01-17T06:13:23.369Z,23.13
2019-01-17T06:15:52.423Z,29.47
2019-01-17T06:18:21.482Z,22.10
2019-01-17T06:20:50.562Z,29.67
2019-01-17T06:23:19.616Z,16.10
2019-01-17T06:25:48.666Z,22.20
2019-01-17T06:28:17.768Z,25.20
2019-01-17T06:30:46.812Z,25.13
2019-01-17T06:33:15.872Z,36.97
2019-01-17T06:35:45.034Z,25.40
2019-01-17T06:38:14.101Z,24.33
2019-01-17T06:40:43.141Z,21.47
2019-01-17T06:43:12.223Z,27.77
2019-01-17T06:45:43.279Z,19.87
2019-01-17T06:48:12.321Z,16.33
2019-01-17T06:50:41.444Z,11.50
2019-01-17T06:53:10.495Z,19.60
2019-01-17T06:55:39.556Z,15.97
2019-01-17T06:58:08.630Z,17.90
2019-01-17T07:00:37.692Z,27.27
2019-01-17T07:03:06.755Z,20.27
2019-01-17T07:05:35.834Z,16.50
2019-01-17T07:08:04.904Z,18.13
2019-01-17T07:10:33.947Z,13.90
2019-01-17T07:13:03.063Z,16.53
2019-01-17T07:18:40.601Z,19.90
2019-01-17T07:21:09.653Z,13.23
2019-01-17T07:23:38.695Z,17.90
2019-01-17T07:26:07.774Z,17.87
2019-01-17T07:28:36.826Z,21.03
2019-01-17T07:31:05.869Z,13.13
2019-01-17T07:33:34.995Z,13.33
2019-01-17T07:36:04.039Z,34.10
2019-01-17T07:38:33.085Z,17.37
2019-01-17T07:41:02.164Z,11.97
2019-01-17T07:43:31.211Z,22.00
2019-01-17T07:46:05.665Z,14.30
2019-01-17T07:48:34.705Z,12.47
2019-01-17T07:51:03.764Z,10.87
2019-01-17T07:53:32.868Z,11.17
2019-01-17T07:56:01.927Z,13.53
2019-01-17T07:58:30.963Z,7.47
2019-01-17T08:01:00.037Z,11.10
2019-01-17T08:03:29.086Z,13.37
2019-01-17T08:05:58.140Z,10.53
2019-01-17T08:08:27.214Z,10.17
2019-01-17T08:10:56.258Z,8.40
2019-01-17T08:13:25.283Z,8.37
2019-01-17T08:15:54.398Z,9.17
2019-01-17T08:18:23.440Z,10.23
2019-01-17T08:20:52.479Z,11.40
2019-01-17T08:23:21.603Z,16.57
2019-01-17T08:25:54.205Z,9.87
2019-01-17T08:28:19.681Z,19.70
2019-01-17T08:30:48.757Z,12.90
2019-01-17T08:33:17.810Z,12.50
2019-01-17T08:35:46.850Z,9.90
2019-01-17T08:38:15.946Z,10.47
2019-01-17T08:40:44.987Z,11.23
2019-01-17T08:43:14.022Z,9.10
2019-01-17T08:45:43.076Z,10.20
2019-01-17T08:48:12.128Z,12.33
2019-01-17T08:50:41.172Z,10.00
2019-01-17T08:53:10.235Z,7.97
2019-01-17T08:58:38.034Z,8.80
2019-01-17T09:01:07.082Z,6.87
2019-01-17T09:03:36.131Z,10.87
2019-01-17T09:09:03.902Z,9.40
2019-01-17T09:11:32.981Z,10.70
2019-01-17T09:14:02.024Z,10.73
2019-01-17T09:16:45.960Z,11.07
2019-01-17T09:19:15.007Z,10.37
2019-01-17T09:21:44.052Z,11.90
2019-01-17T09:24:13.114Z,11.33
2019-01-17T09:26:42.162Z,10.20
2019-01-17T09:29:11.215Z,12.23
2019-01-17T09:31:40.280Z,10.83
2019-01-17T09:34:09.320Z,11.23
2019-01-17T09:36:38.363Z,10.50
2019-01-17T09:39:07.527Z,10.43
2019-01-17T09:41:36.581Z,12.57
2019-01-17T09:44:05.635Z,12.67
2019-01-17T09:46:34.711Z,13.10
2019-01-17T09:49:03.769Z,13.13
2019-01-17T09:51:32.801Z,13.97
2019-01-17T09:54:01.871Z,10.13
2019-01-17T09:56:30.920Z,12.63
2019-01-17T09:58:59.976Z,10.10
2019-01-17T10:01:29.236Z,11.60
2019-01-17T10:03:58.272Z,8.37
2019-01-17T10:06:27.325Z,12.33
2019-01-17T10:08:56.391Z,9.80
2019-01-17T10:11:25.451Z,31.77
2019-01-17T10:13:54.507Z,25.20
2019-01-17T10:16:24.523Z,70.33
2019-01-17T10:18:59.104Z,30.07
2019-01-17T10:21:35.860Z,13.23
2019-01-17T10:24:11.472Z,15.43
2019-01-17T10:26:45.188Z,17.80
2019-01-17T10:29:16.884Z,14.50
2019-01-17T10:31:45.955Z,9.53
2019-01-17T10:34:19.934Z,8.10
2019-01-17T10:36:49.025Z,13.73
2019-01-17T10:39:19.887Z,12.53
2019-01-17T10:41:49.872Z,13.20
2019-01-17T10:44:20.420Z,17.40
2019-01-17T10:46:53.988Z,11.37
2019-01-17T10:49:29.539Z,15.67
2019-01-17T10:52:04.395Z,14.80
2019-01-17T10:54:44.256Z,16.37
2019-01-17T10:57:14.294Z,12.70
2019-01-17T10:59:44.149Z,13.20
2019-01-17T11:02:16.052Z,17.67
2019-01-17T11:04:46.900Z,19.23
2019-01-17T11:07:15.952Z,13.23
2019-01-17T11:09:47.598Z,21.47
2019-01-17T11:12:21.316Z,20.00
2019-01-17T11:14:53.345Z,14.27
2019-01-17T11:17:27.321Z,13.80
2019-01-17T11:19:56.387Z,13.83
2019-01-17T11:22:27.242Z,15.53
2019-01-17T11:24:59.314Z,16.17
2019-01-17T11:27:34.237Z,16.97
2019-01-17T11:30:12.139Z,22.77
2019-01-17T11:32:54.851Z,21.00
2019-01-17T11:35:29.690Z,16.27
2019-01-17T11:37:58.730Z,13.20
2019-01-17T11:40:31.460Z,16.13
2019-01-17T11:43:01.446Z,15.97
2019-01-17T11:45:33.931Z,13.40
2019-01-17T11:48:06.491Z,18.73
2019-01-17T11:50:37.353Z,13.70
2019-01-17T11:53:12.976Z,16.73
2019-01-17T11:55:54.176Z,15.17
2019-01-17T11:58:27.590Z,19.33
2019-01-17T12:00:59.516Z,25.07
2019-01-17T12:03:30.484Z,16.63
2019-01-17T12:05:59.534Z,19.87
2019-01-17T12:08:28.623Z,21.33
2019-01-17T12:10:57.670Z,13.13
2019-01-17T12:13:26.725Z,21.93
2019-01-17T12:15:57.944Z,25.27
2019-01-17T12:18:26.994Z,21.30
2019-01-17T12:20:56.054Z,19.83
2019-01-17T12:23:25.148Z,35.83
2019-01-17T12:25:54.202Z,18.07
2019-01-17T12:28:23.243Z,26.30
2019-01-17T12:30:52.323Z,25.40
2019-01-17T12:33:21.384Z,28.00
2019-01-17T12:35:50.440Z,23.87
2019-01-17T12:38:19.550Z,21.20
2019-01-17T12:40:48.609Z,22.27
2019-01-17T12:43:17.651Z,21.73
2019-01-17T12:45:47.730Z,24.00
2019-01-17T12:48:16.778Z,29.13
2019-01-17T12:50:45.828Z,19.47
2019-01-17T12:53:14.908Z,22.00
2019-01-17T12:55:43.943Z,31.07
2019-01-17T12:58:12.985Z,23.37
2019-01-17T13:00:42.083Z,28.10
2019-01-17T13:03:11.133Z,58.17
2019-01-17T13:05:40.188Z,116.67
2019-01-17T13:08:09.262Z,76.00
2019-01-17T13:10:38.314Z,88.13
2019-01-17T13:13:07.372Z,127.40
2019-01-17T13:15:36.462Z,121.13
2019-01-17T13:18:05.504Z,44.53
2019-01-17T13:20:34.558Z,79.37
2019-01-17T13:23:03.648Z,89.60
2019-01-17T13:25:32.699Z,84.10
2019-01-17T13:28:01.755Z,78.73
2019-01-17T13:30:30.815Z,56.13
2019-01-17T13:32:59.857Z,46.90
2019-01-17T13:35:28.911Z,24.30
2019-01-17T13:37:57.982Z,34.47
2019-01-17T13:40:27.030Z,73.27
2019-01-17T13:42:56.086Z,30.93
2019-01-17T13:45:25.187Z,23.43
2019-01-17T13:47:54.259Z,27.37
2019-01-17T13:50:23.274Z,22.27
2019-01-17T13:52:52.336Z,16.13
2019-01-17T13:55:21.397Z,17.73
2019-01-17T13:57:50.443Z,11.43
2019-01-17T14:00:20.335Z,14.43
2019-01-17T14:02:49.369Z,13.27
2019-01-17T14:05:18.423Z,15.27
2019-01-17T14:07:47.607Z,21.00
2019-01-17T14:10:16.666Z,29.20
2019-01-17T14:12:45.709Z,46.27
2019-01-17T14:15:17.576Z,24.23
2019-01-17T14:17:46.618Z,32.57
2019-01-17T14:20:15.668Z,66.17
2019-01-17T14:22:44.739Z,22.57
2019-01-17T14:25:14.580Z,20.17
2019-01-17T14:27:43.617Z,14.10
2019-01-17T14:30:13.663Z,22.10
2019-01-17T14:32:42.716Z,16.57
2019-01-17T14:35:11.752Z,17.87
2019-01-17T14:37:40.820Z,16.07
2019-01-17T14:40:09.871Z,18.50
2019-01-17T14:42:38.915Z,16.83
2019-01-17T14:45:11.790Z,14.80
2019-01-17T14:47:40.841Z,23.70
2019-01-17T14:50:09.899Z,22.93
2019-01-17T14:52:39.011Z,20.43
2019-01-17T14:55:08.063Z,17.17
2019-01-17T14:57:37.111Z,17.83
2019-01-17T15:00:09.038Z,11.27
2019-01-17T15:02:38.103Z,16.53
2019-01-17T15:05:07.161Z,17.07
2019-01-17T15:07:36.242Z,19.80
2019-01-17T15:10:06.203Z,12.07
2019-01-17T15:12:35.251Z,14.20
2019-01-17T15:15:05.184Z,18.73
2019-01-17T15:17:34.239Z,13.07
2019-01-17T15:20:03.282Z,17.13
2019-01-17T15:22:32.356Z,15.00
2019-01-17T15:25:01.418Z,19.47
2019-01-17T15:27:30.470Z,22.80
2019-01-17T15:29:59.547Z,39.33
2019-01-17T15:32:28.593Z,14.60
2019-01-17T15:34:57.643Z,14.33
2019-01-17T15:37:26.745Z,23.60
2019-01-17T15:39:55.805Z,18.73
2019-01-17T15:42:24.863Z,12.93
2019-01-17T15:44:54.024Z,10.33
2019-01-17T15:47:23.070Z,12.03
2019-01-17T15:49:52.102Z,6.17
2019-01-17T15:52:21.167Z,9.60
2019-01-17T15:54:50.207Z,8.93
2019-01-17T15:57:19.247Z,7.63
2019-01-17T15:59:48.372Z,8.47
2019-01-17T16:02:17.412Z,8.53
2019-01-17T16:04:47.238Z,11.03
2019-01-17T16:07:16.306Z,8.00
2019-01-17T16:09:45.359Z,10.27
2019-01-17T16:12:14.405Z,7.17
2019-01-17T16:14:43.569Z,16.13
2019-01-17T16:17:12.614Z,13.03
2019-01-17T16:19:41.668Z,14.47
2019-01-17T16:22:10.778Z,12.47
2019-01-17T16:24:39.830Z,10.87
2019-01-17T16:27:08.874Z,9.10
2019-01-17T16:29:37.944Z,28.67
2019-01-17T16:32:07.002Z,15.73
2019-01-17T16:34:36.059Z,11.97
2019-01-17T16:37:05.137Z,13.53
2019-01-17T16:39:34.187Z,11.73
2019-01-17T16:42:03.250Z,14.40
2019-01-17T16:44:32.349Z,14.53
2019-01-17T16:47:01.417Z,9.50
2019-01-17T16:49:30.431Z,10.27
2019-01-17T16:51:59.524Z,14.30
2019-01-17T16:54:28.574Z,12.97
2019-01-17T16:56:57.628Z,10.03
2019-01-17T16:59:26.731Z,15.93
2019-01-17T17:01:55.776Z,12.20
2019-01-17T17:04:24.823Z,16.20
2019-01-17T17:06:54.877Z,11.60
2019-01-17T17:09:23.897Z,8.03
2019-01-17T17:11:52.936Z,9.80
2019-01-17T17:14:21.997Z,11.67
2019-01-17T17:16:51.069Z,8.30
2019-01-17T17:19:20.113Z,11.80
2019-01-17T17:21:49.212Z,9.23
2019-01-17T17:24:18.240Z,8.40
2019-01-17T17:26:47.292Z,12.60
2019-01-17T17:29:16.401Z,21.00
2019-01-17T17:31:45.456Z,13.53
2019-01-17T17:34:14.497Z,8.40
2019-01-17T17:36:43.569Z,13.13
2019-01-17T17:39:12.623Z,13.77
2019-01-17T17:41:41.673Z,20.37
2019-01-17T17:44:10.759Z,54.40
2019-01-17T17:46:39.802Z,65.63
2019-01-17T17:49:08.865Z,27.97
2019-01-17T17:51:38.006Z,49.47
2019-01-17T17:54:07.072Z,34.63
2019-01-17T17:56:36.128Z,53.93
2019-01-17T17:59:05.206Z,32.60
2019-01-17T18:01:34.258Z,43.90
2019-01-17T18:04:03.308Z,29.17
2019-01-17T18:06:32.413Z,22.80
2019-01-17T18:09:01.470Z,13.67
2019-01-17T18:11:30.522Z,17.67
2019-01-17T18:13:59.667Z,46.20
2019-01-17T18:16:28.722Z,36.63
2019-01-17T18:18:57.765Z,36.87
2019-01-17T18:21:26.851Z,29.97
2019-01-17T18:23:55.898Z,27.87
2019-01-17T18:26:24.950Z,24.43
2019-01-17T18:28:54.040Z,20.77
2019-01-17T18:31:23.093Z,23.67
2019-01-17T18:33:52.147Z,64.77
2019-01-17T18:36:21.367Z,11.63
2019-01-17T18:38:50.403Z,9.37
2019-01-17T18:41:19.457Z,11.57
2019-01-17T18:43:48.529Z,8.77
2019-01-17T18:46:17.566Z,9.30
2019-01-17T18:48:46.603Z,7.00
2019-01-17T18:51:15.677Z,9.93
2019-01-17T18:53:44.731Z,10.90
2019-01-17T18:56:30.773Z,11.30
2019-01-17T18:58:59.833Z,10.57
2019-01-17T19:01:28.883Z,10.27
2019-01-17T19:03:57.958Z,12.43
2019-01-17T19:06:27.838Z,12.97
2019-01-17T19:08:56.880Z,6.97
2019-01-17T19:11:25.956Z,10.37
2019-01-17T19:13:55.002Z,11.30
2019-01-17T19:16:24.053Z,14.47
2019-01-17T19:18:53.139Z,12.33
2019-01-17T19:21:22.174Z,8.73
2019-01-17T19:23:51.205Z,11.93
2019-01-17T19:26:20.277Z,10.40
2019-01-17T19:28:49.320Z,13.73
2019-01-17T19:31:18.375Z,18.03
2019-01-17T19:33:47.462Z,17.97
2019-01-17T19:36:16.506Z,29.30
2019-01-17T19:38:45.567Z,21.20
2019-01-17T19:41:14.669Z,29.23
2019-01-17T19:43:43.721Z,17.87
2019-01-17T19:46:12.775Z,12.67
2019-01-17T19:48:41.849Z,22.63
2019-01-17T19:51:10.907Z,27.93
2019-01-17T19:53:39.969Z,22.83
2019-01-17T19:56:09.047Z,23.77
2019-01-17T19:58:38.115Z,16.93
2019-01-17T20:01:07.175Z,27.17
2019-01-17T20:03:36.291Z,18.80
2019-01-17T20:06:05.361Z,44.43
2019-01-17T20:08:34.432Z,214.70
2019-01-17T20:11:03.526Z,371.60
2019-01-17T20:13:32.595Z,222.73
2019-01-17T20:16:01.674Z,67.00
2019-01-17T20:18:30.767Z,13.13
2019-01-17T20:20:59.827Z,11.90
2019-01-17T20:23:28.883Z,15.47
2019-01-17T20:25:57.979Z,13.27
2019-01-17T20:28:27.037Z,11.63
2019-01-17T20:30:56.088Z,23.40
2019-01-17T20:33:25.207Z,17.53
2019-01-17T20:35:54.222Z,26.63
2019-01-17T20:38:23.288Z,24.03
2019-01-17T20:40:58.036Z,28.30
2019-01-17T20:43:21.452Z,16.23
2019-01-17T20:45:50.503Z,22.07
2019-01-17T20:48:19.592Z,23.83
2019-01-17T20:50:48.647Z,26.33
2019-01-17T20:53:17.712Z,26.10
2019-01-17T20:55:47.775Z,34.53
2019-01-17T20:58:16.843Z,14.90
2019-01-17T21:00:45.859Z,13.27
2019-01-17T21:03:15.031Z,21.43
2019-01-17T21:05:44.072Z,16.10
2019-01-17T21:08:13.389Z,12.43
2019-01-17T21:10:42.739Z,15.23
2019-01-17T21:13:11.786Z,14.67
2019-01-17T21:18:59.111Z,9.27
2019-01-17T21:21:28.188Z,10.20
2019-01-17T21:23:57.227Z,12.70
2019-01-17T21:26:29.635Z,16.30
2019-01-17T21:29:02.345Z,16.13
2019-01-17T21:31:31.307Z,13.00
2019-01-17T21:34:00.349Z,9.50
2019-01-17T21:36:29.388Z,11.43
2019-01-17T21:38:58.460Z,10.30
2019-01-17T21:41:27.508Z,10.23
2019-01-17T21:43:56.543Z,7.10
2019-01-17T21:46:25.656Z,9.93
2019-01-17T21:48:54.688Z,8.77
2019-01-17T21:51:23.738Z,15.43
2019-01-17T21:53:52.822Z,16.47
2019-01-17T21:56:40.883Z,21.17
2019-01-17T21:59:09.969Z,18.47
2019-01-17T22:01:39.022Z,16.37
2019-01-17T22:04:08.078Z,11.50
2019-01-17T22:06:37.220Z,15.20
2019-01-17T22:09:06.259Z,11.23
2019-01-17T22:11:35.302Z,13.13
2019-01-17T22:14:04.497Z,10.53
2019-01-17T22:16:33.543Z,9.20
2019-01-17T22:19:02.591Z,15.17
2019-01-17T22:21:31.666Z,14.70
2019-01-17T22:24:00.718Z,12.10
2019-01-17T22:26:29.772Z,18.30
2019-01-17T22:29:02.423Z,12.17
2019-01-17T22:31:28.081Z,10.10
2019-01-17T22:33:57.119Z,12.60
2019-01-17T22:42:36.860Z,9.80
2019-01-17T22:45:05.894Z,11.73
2019-01-17T22:47:34.944Z,15.37
2019-01-17T22:50:04.038Z,9.43
2019-01-17T22:52:33.076Z,11.47
2019-01-17T22:55:02.128Z,8.53
2019-01-17T22:57:31.206Z,13.40
2019-01-17T23:00:00.264Z,14.17
2019-01-17T23:02:29.328Z,18.80
2019-01-17T23:04:58.390Z,12.03
2019-01-17T23:07:27.436Z,10.73
2019-01-17T23:09:56.480Z,10.50
2019-01-17T23:12:25.588Z,9.87
2019-01-17T23:14:54.620Z,10.10
2019-01-17T23:17:23.663Z,10.70
2019-01-17T23:19:59.769Z,9.60
2019-01-17T23:22:28.590Z,11.83
2019-01-17T23:24:57.633Z,8.70
2019-01-17T23:27:26.723Z,12.10
2019-01-17T23:29:55.768Z,10.90
2019-01-17T23:32:24.810Z,14.77
2019-01-17T23:34:53.875Z,9.97
2019-01-17T23:37:22.922Z,9.40
2019-01-17T23:39:51.949Z,7.43
2019-01-17T23:42:21.018Z,10.47
2019-01-17T23:44:50.060Z,10.53
2019-01-17T23:47:19.089Z,8.43
2019-01-17T23:49:48.170Z,9.53
2019-01-17T23:52:17.203Z,9.93
2019-01-17T23:54:46.238Z,8.57
2019-01-17T23:57:15.304Z,10.83
2019-01-17T23:59:44.356Z,11.90
